Flight Track Log - Related Links

Times and Time Zones

All times are in EDT time to prevent confusion due to time zone crossing. See the ASQ5963 flight status page for this flight to view local times or setup timezone preferences in your user account.

Time Position Orientation Groundspeed Altitude Reporting Facility
EDT Latitude Longitude Course Direction KTS MPH feet Rate Location/Type
Mon 02:25:56 PM 29.9594 -95.3414 90° East 158 182 700  Level Houston Center
Mon 02:27:04 PM 29.9394 -95.2836 112° Southeast 208 239 2,400 1,512 Climbing Houston Center
Mon 02:27:59 PM 29.9267 -95.2153 102° East 250 288 3,800 706 Climbing Houston Center
Mon 02:29:00 PM 29.9833 -94.8347 90° East  Level FlightAware Approximate
Mon 02:29:20 PM 29.9086 -95.1086 101° East 253 291 4,000  Level Houston Center
Mon 02:30:00 PM 29.9834 -94.7101 90° East  Level FlightAware Approximate
Mon 02:30:22 PM 29.8886 -95.0303 106° East 253 291 5,900  Level Houston Center
Mon 02:31:00 PM 29.9833 -94.5854 90° East  Level FlightAware Approximate
Mon 02:31:24 PM 29.8672 -94.9500 107° East 258 297 8,000  Level Houston Center
Mon 02:32:26 PM 29.8450 -94.8683 107° East 265 305 9,900 1,790 Climbing Houston Center
Mon 02:33:28 PM 29.8225 -94.7819 107° East 278 320 11,700 1,742 Climbing Houston Center
Mon 02:34:30 PM 29.8003 -94.6942 106° East 283 326 13,500 1,694 Climbing Houston Center
Mon 02:35:32 PM 29.7986 -94.6050 91° East 295 339 15,200 1,403 Climbing Houston Center
Mon 02:36:34 PM 29.8192 -94.4908 78° East 305 351 16,400 1,065 Climbing Houston Center
Mon 02:37:36 PM 29.8331 -94.3886 81° East 321 369 17,400 919 Climbing Houston Center
Mon 02:38:38 PM 29.8456 -94.2797 82° East 340 391 18,300 919 Climbing Houston Center
Mon 02:39:40 PM 29.8731 -94.1703 74° East 356 410 19,300 1,016 Climbing Houston Center
Mon 02:40:42 PM 29.9058 -94.0442 73° East 365 420 20,400 1,016 Climbing Houston Center
Mon 02:41:44 PM 29.9347 -93.9314 74° East 368 423 21,400 968 Climbing Houston Center
Mon 02:42:46 PM 29.9628 -93.8147 74° East 378 435 22,400 919 Climbing Houston Center
Mon 02:43:48 PM 29.9922 -93.6994 74° East 377 434 23,300 1,000 Climbing Houston Center
Mon 02:45:52 PM 30.0561 -93.4456 74° East 379 436 25,500 1,032 Climbing Houston Center
Mon 02:46:54 PM 30.0842 -93.3314 74° East 377 434 26,500 919 Climbing Houston Center
Mon 02:47:56 PM 30.1128 -93.2169 74° East 376 433 27,400 919 Climbing Houston Center
Mon 02:48:58 PM 30.1428 -93.1036 73° East 374 430 28,400 968 Climbing Houston Center
Mon 02:50:00 PM 30.1950 -93.0011 59° Northeast 376 433 29,400 1,016 Climbing Houston Center
Mon 02:51:02 PM 30.2192 -92.8631 79° East 369 425 30,500 1,016 Climbing Houston Center
Mon 02:52:04 PM 30.2394 -92.7478 78° East 369 425 31,500 968 Climbing Houston Center
Mon 02:53:06 PM 30.2594 -92.6333 79° East 366 421 32,500 726 Climbing Houston Center
Mon 02:54:08 PM 30.2792 -92.5175 79° East 369 425 33,000 242 Climbing Houston Center
Mon 02:55:10 PM 30.3011 -92.3933 78° East 392 451 33,000  Level Houston Center
Mon 02:56:12 PM 30.3486 -92.2719 66° East 408 470 33,000  Level Houston Center
Mon 02:57:14 PM 30.4375 -92.1456 51° Northeast 418 481 33,000  Level Houston Center
Mon 02:58:15 PM 30.5236 -92.0494 44° Northeast 429 494 33,000 732 Level Houston Center
Mon 02:59:17 PM 30.6056 -91.9628 42° Northeast 414 476 34,500 1,210 Climbing Houston Center
Mon 03:00:19 PM 30.6881 -91.8900 37° Northeast 389 448 35,500 919 Climbing Houston Center
Mon 03:01:21 PM 30.7692 -91.8175 38° Northeast 376 433 36,400 726 Climbing Houston Center
Mon 03:02:23 PM 30.8656 -91.7344 36° Northeast 366 421 37,000 290 Climbing Houston Center
Mon 03:03:25 PM 30.9425 -91.6528 42° Northeast 372 428 37,000  Level Houston Center
Mon 03:04:27 PM 31.0206 -91.5678 43° Northeast 379 436 37,000  Level Houston Center
Mon 03:05:29 PM 31.1014 -91.4750 44° Northeast 396 456 37,000  Level Houston Center
Mon 03:06:31 PM 31.1744 -91.3547 55° Northeast 428 493 37,000  Level Houston Center
Mon 03:07:33 PM 31.2339 -91.2306 61° Northeast 438 504 37,000  Level Houston Center
Mon 03:08:35 PM 31.3033 -91.0872 60° Northeast 446 513 37,000  Level Houston Center
Mon 03:09:37 PM 31.3569 -90.9767 60° Northeast 450 518 37,000  Level Houston Center
Mon 03:10:39 PM 31.4311 -90.8236 60° Northeast 450 518 37,000  Level Houston Center
Mon 03:11:41 PM 31.5039 -90.7042 54° Northeast 452 520 37,000 -48 Level Houston Center
Mon 03:12:43 PM 31.5822 -90.5922 51° Northeast 447 514 36,900  Descending Houston Center
Mon 03:13:45 PM 31.6625 -90.4792 50° Northeast 449 517 37,000 48 Climbing Houston Center
Mon 03:14:47 PM 31.7408 -90.3678 50° Northeast 444 511 37,000 -48 Level Houston Center
Mon 03:15:49 PM 31.8194 -90.2556 50° Northeast 443 510 36,900  Descending Houston Center
Mon 03:16:51 PM 31.8969 -90.1444 51° Northeast 442 509 37,000 49 Climbing Houston Center
Mon 03:17:51 PM 31.9783 -90.0267 51° Northeast 441 507 37,000 -600 Level Memphis Center
Mon 03:18:51 PM 32.0553 -89.9136 51° Northeast 441 507 35,800 -1,000 Descending Memphis Center
Mon 03:19:51 PM 32.1425 -89.7881 51° Northeast 441 507 35,000 -400 Descending Memphis Center
Mon 03:20:51 PM 32.2192 -89.6819 49° Northeast 441 507 35,000  Level Memphis Center
Mon 03:21:51 PM 32.2936 -89.5683 52° Northeast 441 507 35,000  Level Memphis Center
Mon 03:22:51 PM 32.3700 -89.4594 50° Northeast 436 502 35,000  Level Memphis Center
Mon 03:23:51 PM 32.4486 -89.3431 51° Northeast 436 502 35,000  Level Memphis Center
Mon 03:24:51 PM 32.5289 -89.2264 51° Northeast 436 502 35,000  Level Memphis Center
Mon 03:25:51 PM 32.6092 -89.1094 51° Northeast 448 516 35,000  Level Memphis Center
Mon 03:26:51 PM 32.6853 -88.9947 52° Northeast 448 516 35,000  Level Memphis Center
Mon 03:27:51 PM 32.7633 -88.8800 51° Northeast 448 516 35,000  Level Memphis Center
Mon 03:28:51 PM 32.8411 -88.7675 51° Northeast 448 516 35,000  Level Memphis Center
Mon 03:29:51 PM 32.9128 -88.6622 51° Northeast 448 516 35,000  Level Memphis Center
Mon 03:30:51 PM 32.9886 -88.5467 52° Northeast 448 516 35,000  Level Memphis Center
Mon 03:32:55 PM 33.1531 -88.2964 52° Northeast 442 509 35,000  Level Atlanta Center
Mon 03:33:55 PM 33.2297 -88.1836 51° Northeast 442 509 35,000  Level Atlanta Center
Mon 03:34:55 PM 33.3047 -88.0678 52° Northeast 442 509 35,000  Level Atlanta Center
Mon 03:35:55 PM 33.3814 -87.9494 52° Northeast 442 509 35,000  Level Atlanta Center
Mon 03:36:55 PM 33.4583 -87.8333 52° Northeast 447 514 35,000  Level Atlanta Center
Mon 03:37:55 PM 33.5347 -87.7147 52° Northeast 447 514 35,000  Level Atlanta Center
Mon 03:38:55 PM 33.6114 -87.5983 52° Northeast 447 514 35,000  Level Atlanta Center
Mon 03:39:55 PM 33.6833 -87.4889 52° Northeast 447 514 35,000  Level Atlanta Center
Mon 03:40:55 PM 33.7575 -87.3694 53° Northeast 447 514 35,000  Level Atlanta Center
Mon 03:41:55 PM 33.8336 -87.2547 51° Northeast 447 514 35,000  Level Atlanta Center
Mon 03:42:55 PM 33.9097 -87.1350 53° Northeast 447 514 35,000  Level Atlanta Center
Mon 03:43:55 PM 33.9836 -87.0200 52° Northeast 442 509 35,000  Level Atlanta Center
Mon 03:44:55 PM 34.0594 -86.9022 52° Northeast 442 509 35,000  Level Atlanta Center
Mon 03:45:55 PM 34.1331 -86.7842 53° Northeast 442 509 35,000  Level Atlanta Center
Mon 03:46:55 PM 34.2086 -86.6661 52° Northeast 442 509 35,000  Level Atlanta Center
Mon 03:47:55 PM 34.2842 -86.5503 52° Northeast 442 509 35,000  Level Atlanta Center
Mon 03:48:55 PM 34.3597 -86.4317 52° Northeast 436 502 35,000  Level Atlanta Center
Mon 03:49:55 PM 34.4328 -86.3156 53° Northeast 436 502 35,000 -50 Level Atlanta Center
Mon 03:50:55 PM 34.5058 -86.1989 53° Northeast 436 502 34,900 -500 Descending Atlanta Center
Mon 03:51:55 PM 34.5767 -86.0822 54° Northeast 431 496 34,000 -900 Descending Atlanta Center
Mon 03:52:55 PM 34.6517 -85.9681 51° Northeast 431 496 33,100 -950 Descending Atlanta Center
Mon 03:53:55 PM 34.7264 -85.8483 53° Northeast 431 496 32,100 -1,000 Descending Atlanta Center
Mon 03:54:55 PM 34.8056 -85.7211 53° Northeast 426 490 31,100 -900 Descending Atlanta Center
Mon 03:55:55 PM 34.8800 -85.6036 52° Northeast 431 496 30,300 -950 Descending Atlanta Center
Mon 03:56:55 PM 34.9525 -85.4833 54° Northeast 431 496 29,200 -650 Descending Atlanta Center
Mon 03:57:55 PM 35.0267 -85.3653 52° Northeast 431 496 29,000 -100 Descending Atlanta Center
Mon 03:58:55 PM 35.0989 -85.2447 54° Northeast 431 496 29,000  Level Atlanta Center
Mon 03:59:55 PM 35.1711 -85.1261 53° Northeast 431 496 29,000 -750 Level Atlanta Center
Mon 04:00:55 PM 35.2367 -85.0153 54° Northeast 431 496 27,500 -2,050 Descending Atlanta Center
Mon 04:01:55 PM 35.3022 -84.9067 53° Northeast 416 479 24,900 -2,750 Descending Atlanta Center
Mon 04:02:55 PM 35.3697 -84.7978 53° Northeast 404 465 22,000 -2,950 Descending Atlanta Center
Mon 04:03:55 PM 35.4308 -84.6964 53° Northeast 392 451 19,000 -2,800 Descending Atlanta Center
Mon 04:04:55 PM 35.4917 -84.5947 54° Northeast 381 438 16,400 -2,550 Descending Atlanta Center
Mon 04:05:55 PM 35.5422 -84.4906 59° Northeast 366 421 13,900 -2,300 Descending Atlanta Center
Mon 04:06:55 PM 35.5883 -84.3936 60° Northeast 345 397 11,800 -2,200 Descending Atlanta Center
Mon 04:07:55 PM 35.6303 -84.3044 60° Northeast 313 360 9,500 -2,250 Descending Atlanta Center
Mon 04:08:55 PM 35.6681 -84.2253 60° Northeast 286 329 7,300 -2,300 Descending Atlanta Center
Mon 04:09:55 PM 35.7058 -84.1514 58° Northeast 271 312 4,900 -2,400 Descending Atlanta Center

Login

Don't have an account? Register now (free) for customized features, flight alerts, and more!